createdAt,value
2019-04-14T00:01:13.022Z,8.30
2019-04-14T00:03:58.756Z,7.90
2019-04-14T00:06:28.662Z,8.50
2019-04-14T00:08:58.638Z,8.93
2019-04-14T00:11:28.002Z,8.83
2019-04-14T00:13:57.392Z,8.53
2019-04-14T00:16:27.010Z,8.60
2019-04-14T00:18:57.597Z,8.50
2019-04-14T00:21:26.796Z,8.43
2019-04-14T00:23:56.641Z,9.73
2019-04-14T00:26:29.128Z,9.30
2019-04-14T00:29:00.110Z,9.47
2019-04-14T00:31:30.578Z,9.23
2019-04-14T00:34:15.930Z,9.13
2019-04-14T00:37:09.801Z,9.73
2019-04-14T00:39:42.218Z,8.47
2019-04-14T00:42:23.424Z,8.33
2019-04-14T00:45:00.451Z,8.30
2019-04-14T00:47:49.736Z,8.80
2019-04-14T00:50:10.139Z,8.30
2019-04-14T00:52:39.459Z,8.40
2019-04-14T00:55:09.698Z,9.07
2019-04-14T00:57:39.768Z,8.87
2019-04-14T01:00:10.419Z,8.43
2019-04-14T01:02:40.716Z,8.33
2019-04-14T01:05:10.885Z,8.77
2019-04-14T01:07:41.230Z,8.70
2019-04-14T01:10:10.588Z,9.13
2019-04-14T01:12:39.484Z,7.97
2019-04-14T01:15:09.305Z,8.77
2019-04-14T01:17:39.299Z,9.00
2019-04-14T01:20:09.968Z,8.87
2019-04-14T01:22:40.117Z,9.37
2019-04-14T01:25:10.579Z,9.13
2019-04-14T01:27:40.658Z,9.83
2019-04-14T01:30:11.171Z,9.47
2019-04-14T01:32:41.461Z,8.93
2019-04-14T01:35:11.649Z,9.37
2019-04-14T01:37:41.910Z,8.67
2019-04-14T01:40:11.991Z,9.03
2019-04-14T01:42:42.082Z,9.30
2019-04-14T01:45:12.879Z,8.97
2019-04-14T01:47:42.120Z,8.43
2019-04-14T01:50:12.510Z,8.93
2019-04-14T01:52:56.969Z,9.00
2019-04-14T01:55:44.184Z,9.90
2019-04-14T01:58:36.093Z,9.83
2019-04-14T02:01:19.412Z,9.33
2019-04-14T02:03:49.869Z,9.47
2019-04-14T02:06:20.356Z,8.87
2019-04-14T02:08:50.085Z,9.00
2019-04-14T02:11:20.453Z,9.53
2019-04-14T02:13:50.705Z,8.80
2019-04-14T02:16:30.199Z,8.97
2019-04-14T02:18:53.430Z,10.07
2019-04-14T02:21:21.877Z,9.20
2019-04-14T02:23:51.888Z,9.70
2019-04-14T02:26:21.911Z,9.60
2019-04-14T02:28:50.962Z,9.20
2019-04-14T02:31:37.413Z,9.07
2019-04-14T02:34:29.300Z,8.80
2019-04-14T02:36:52.450Z,8.23
2019-04-14T02:39:20.651Z,8.80
2019-04-14T02:42:00.559Z,10.03
2019-04-14T02:44:24.023Z,9.03
2019-04-14T02:49:19.518Z,9.20
2019-04-14T02:51:49.654Z,8.57
2019-04-14T02:54:37.011Z,9.00
2019-04-14T02:56:58.895Z,9.30
2019-04-14T02:59:21.803Z,8.20
2019-04-14T03:02:18.102Z,9.13
2019-04-14T03:04:27.710Z,9.00
2019-04-14T03:06:56.384Z,9.20
2019-04-14T03:12:07.127Z,9.23
2019-04-14T03:14:31.199Z,8.33
2019-04-14T03:20:13.698Z,8.37
2019-04-14T03:22:43.985Z,7.80
2019-04-14T03:25:09.735Z,8.67
2019-04-14T03:27:54.823Z,9.17
2019-04-14T03:36:05.991Z,8.20
2019-04-14T03:43:13.229Z,8.20
2019-04-14T03:45:46.749Z,9.10
2019-04-14T03:48:42.513Z,9.37
2019-04-14T03:50:37.419Z,8.47
2019-04-14T03:55:58.407Z,9.00
2019-04-14T03:58:24.659Z,9.67
2019-04-14T04:00:53.756Z,8.90
2019-04-14T04:03:23.831Z,9.47
2019-04-14T04:05:54.157Z,9.70
2019-04-14T04:08:24.347Z,9.50
2019-04-14T04:10:53.801Z,9.33
2019-04-14T04:13:23.662Z,9.53
2019-04-14T04:15:54.539Z,10.53
2019-04-14T04:18:26.574Z,9.93
2019-04-14T04:21:16.182Z,9.37
2019-04-14T04:24:08.588Z,9.40
2019-04-14T04:26:56.642Z,8.67
2019-04-14T04:29:35.128Z,8.43
2019-04-14T04:32:18.432Z,8.83
2019-04-14T04:35:02.559Z,8.20
2019-04-14T04:37:49.835Z,9.03
2019-04-14T04:40:25.089Z,8.83
2019-04-14T04:42:54.834Z,8.80
2019-04-14T04:45:25.678Z,9.10
2019-04-14T04:47:55.615Z,8.40
2019-04-14T04:50:26.017Z,8.10
2019-04-14T04:52:56.082Z,8.93
2019-04-14T04:55:26.285Z,7.67
2019-04-14T04:57:56.651Z,8.03
2019-04-14T05:00:26.652Z,8.77
2019-04-14T05:02:57.062Z,8.50
2019-04-14T05:06:02.669Z,7.60
2019-04-14T05:08:32.654Z,8.70
2019-04-14T05:11:12.455Z,7.97
2019-04-14T05:13:44.604Z,9.13
2019-04-14T05:16:14.873Z,8.27
2019-04-14T05:18:44.193Z,8.13
2019-04-14T05:21:13.508Z,7.53
2019-04-14T05:23:43.146Z,7.80
2019-04-14T05:26:13.391Z,8.50
2019-04-14T05:28:43.773Z,8.80
2019-04-14T05:31:14.219Z,8.30
2019-04-14T05:33:44.781Z,8.57
2019-04-14T05:36:14.940Z,8.00
2019-04-14T05:38:45.026Z,8.17
2019-04-14T05:41:15.725Z,7.77
2019-04-14T05:43:51.437Z,7.63
2019-04-14T05:46:16.360Z,7.73
2019-04-14T05:48:45.673Z,7.70
2019-04-14T05:51:15.396Z,8.27
2019-04-14T05:53:45.815Z,7.00
2019-04-14T05:56:14.714Z,6.67
2019-04-14T05:58:44.723Z,7.57
2019-04-14T06:01:14.359Z,7.10
2019-04-14T06:03:43.463Z,6.83
2019-04-14T06:06:12.932Z,6.90
2019-04-14T06:08:41.966Z,7.10
2019-04-14T06:11:10.762Z,6.40
2019-04-14T06:13:39.549Z,8.57
2019-04-14T06:16:08.601Z,7.93
2019-04-14T06:18:37.623Z,7.10
2019-04-14T06:21:06.441Z,7.30
2019-04-14T06:23:35.637Z,7.17
2019-04-14T06:26:04.638Z,7.20
2019-04-14T06:28:33.837Z,7.43
2019-04-14T06:31:19.604Z,7.17
2019-04-14T06:34:13.255Z,7.33
2019-04-14T06:37:07.702Z,8.13
2019-04-14T06:39:40.622Z,6.77
2019-04-14T06:42:10.028Z,6.77
2019-04-14T06:44:39.588Z,7.90
2019-04-14T06:47:08.487Z,7.47
2019-04-14T06:49:48.366Z,6.93
2019-04-14T06:52:08.543Z,7.27
2019-04-14T06:54:38.456Z,7.07
2019-04-14T06:57:07.337Z,7.37
2019-04-14T06:59:36.623Z,7.63
2019-04-14T07:02:08.527Z,7.43
2019-04-14T07:04:36.734Z,6.37
2019-04-14T07:07:05.588Z,6.00
2019-04-14T07:09:34.438Z,6.97
2019-04-14T07:12:03.563Z,6.50
2019-04-14T07:14:33.216Z,7.67
2019-04-14T07:17:02.698Z,6.10
2019-04-14T07:19:32.224Z,5.73
2019-04-14T07:22:01.030Z,6.10
2019-04-14T07:24:30.136Z,6.47
2019-04-14T07:26:59.011Z,6.27
2019-04-14T07:29:31.017Z,6.50
2019-04-14T07:32:27.954Z,6.67
2019-04-14T07:35:12.000Z,6.63
2019-04-14T07:37:59.978Z,7.37
2019-04-14T07:40:50.866Z,6.20
2019-04-14T07:43:25.818Z,5.43
2019-04-14T07:46:23.297Z,7.13
2019-04-14T07:49:02.505Z,6.50
2019-04-14T07:51:40.349Z,7.63
2019-04-14T07:54:14.499Z,6.47
2019-04-14T07:56:54.677Z,6.90
2019-04-14T07:59:40.870Z,5.87
2019-04-14T08:02:16.681Z,6.13
2019-04-14T08:05:07.607Z,7.23
2019-04-14T08:07:36.966Z,5.47
2019-04-14T08:10:07.242Z,5.10
2019-04-14T08:12:36.307Z,6.57
2019-04-14T08:15:05.960Z,6.27
2019-04-14T08:17:35.288Z,5.93
2019-04-14T08:20:06.225Z,6.37
2019-04-14T08:22:35.488Z,5.53
2019-04-14T08:25:05.749Z,6.10
2019-04-14T08:27:34.611Z,6.77
2019-04-14T08:30:06.633Z,5.50
2019-04-14T08:32:35.859Z,6.50
2019-04-14T08:35:05.442Z,6.00
2019-04-14T08:37:34.384Z,4.77
2019-04-14T08:40:03.527Z,6.27
2019-04-14T08:43:01.057Z,5.75
2019-04-14T08:45:52.050Z,7.33
2019-04-14T08:49:00.760Z,6.57
2019-04-14T08:51:35.611Z,5.60
2019-04-14T08:54:13.047Z,6.10
2019-04-14T08:56:49.640Z,6.17
2019-04-14T08:59:46.741Z,6.63
2019-04-14T09:02:31.506Z,6.60
2019-04-14T09:05:22.407Z,7.00
2019-04-14T09:07:56.334Z,6.33
2019-04-14T09:10:28.714Z,6.73
2019-04-14T09:12:58.947Z,6.73
2019-04-14T09:15:28.283Z,7.43
2019-04-14T09:17:57.575Z,7.27
2019-04-14T09:20:26.657Z,6.33
2019-04-14T09:22:55.724Z,7.60
2019-04-14T09:25:25.125Z,7.20
2019-04-14T09:27:54.291Z,7.63
2019-04-14T09:30:23.085Z,7.80
2019-04-14T09:32:52.812Z,8.27
2019-04-14T09:35:22.173Z,7.80
2019-04-14T09:37:51.290Z,8.00
2019-04-14T09:40:20.112Z,8.03
2019-04-14T09:42:49.192Z,6.80
2019-04-14T09:45:18.345Z,7.40
2019-04-14T09:47:47.782Z,6.10
2019-04-14T09:50:16.548Z,6.70
2019-04-14T09:52:45.692Z,6.73
2019-04-14T09:55:15.316Z,5.10
2019-04-14T09:57:44.370Z,6.87
2019-04-14T10:00:14.991Z,6.00
2019-04-14T10:02:44.652Z,7.50
2019-04-14T10:05:13.948Z,7.30
2019-04-14T10:07:43.200Z,7.27
2019-04-14T10:10:12.255Z,6.97
2019-04-14T10:12:41.131Z,7.17
2019-04-14T10:15:09.958Z,6.37
2019-04-14T10:17:39.357Z,6.00
2019-04-14T10:20:09.314Z,5.23
2019-04-14T10:22:38.537Z,6.27
2019-04-14T10:25:07.983Z,5.90
2019-04-14T10:27:37.114Z,6.50
2019-04-14T10:30:06.914Z,6.70
2019-04-14T10:32:35.970Z,6.10
2019-04-14T10:35:05.183Z,7.43
2019-04-14T10:37:34.304Z,6.63
2019-04-14T10:40:05.971Z,6.13
2019-04-14T10:42:33.988Z,6.70
2019-04-14T10:45:03.269Z,7.10
2019-04-14T10:47:33.087Z,3.87
2019-04-14T10:50:02.451Z,8.30
2019-04-14T10:52:31.787Z,6.53
2019-04-14T10:55:01.459Z,7.07
2019-04-14T10:57:30.768Z,7.80
2019-04-14T10:59:59.949Z,7.33
2019-04-14T11:02:30.360Z,7.40
2019-04-14T11:04:59.717Z,8.90
2019-04-14T11:07:30.609Z,6.80
2019-04-14T11:09:59.800Z,7.93
2019-04-14T11:12:29.394Z,9.37
2019-04-14T11:14:58.436Z,8.33
2019-04-14T11:17:27.394Z,9.17
2019-04-14T11:19:56.234Z,8.53
2019-04-14T11:22:25.259Z,9.60
2019-04-14T11:24:54.311Z,8.60
2019-04-14T11:27:23.105Z,8.03
2019-04-14T11:29:54.029Z,8.03
2019-04-14T11:32:41.002Z,8.23
2019-04-14T11:35:38.056Z,8.50
2019-04-14T11:38:29.377Z,7.87
2019-04-14T11:41:00.619Z,7.63
2019-04-14T11:43:29.883Z,7.83
2019-04-14T11:45:58.798Z,7.50
2019-04-14T11:48:27.738Z,6.47
2019-04-14T11:50:57.309Z,7.40
2019-04-14T11:53:26.878Z,7.77
2019-04-14T11:55:56.375Z,6.37
2019-04-14T11:58:25.161Z,7.03
2019-04-14T12:01:23.277Z,7.83
2019-04-14T12:04:23.208Z,6.90
2019-04-14T12:07:00.670Z,6.33
2019-04-14T12:09:32.563Z,6.97
2019-04-14T12:12:01.407Z,6.10
2019-04-14T12:14:30.694Z,5.47
2019-04-14T12:16:59.618Z,6.00
2019-04-14T12:19:28.901Z,6.23
2019-04-14T12:22:07.714Z,6.43
2019-04-14T12:24:28.725Z,5.97
2019-04-14T12:26:57.890Z,6.53
2019-04-14T12:29:28.213Z,7.37
2019-04-14T12:31:59.497Z,7.23
2019-04-14T12:34:28.476Z,6.03
2019-04-14T12:36:57.728Z,6.53
2019-04-14T12:39:26.643Z,5.33
2019-04-14T12:42:26.567Z,5.53
2019-04-14T12:45:06.025Z,5.50
2019-04-14T12:47:44.900Z,6.27
2019-04-14T12:50:21.491Z,5.20
2019-04-14T12:52:50.698Z,6.93
2019-04-14T12:55:19.564Z,6.83
2019-04-14T12:57:50.783Z,7.27
2019-04-14T13:00:31.898Z,6.43
2019-04-14T13:03:02.947Z,8.17
2019-04-14T13:05:31.818Z,6.87
2019-04-14T13:08:00.725Z,7.63
2019-04-14T13:10:30.791Z,8.10
2019-04-14T13:12:59.901Z,7.03
2019-04-14T13:15:29.027Z,8.27
2019-04-14T13:17:58.486Z,8.50
2019-04-14T13:20:27.624Z,7.40
2019-04-14T13:22:57.129Z,8.00
2019-04-14T13:25:25.890Z,7.67
2019-04-14T13:27:55.026Z,8.67
2019-04-14T13:30:28.195Z,8.50
2019-04-14T13:32:57.491Z,8.17
2019-04-14T13:35:26.778Z,7.70
2019-04-14T13:37:55.817Z,8.00
2019-04-14T13:40:24.979Z,8.67
2019-04-14T13:42:54.383Z,9.67
2019-04-14T13:45:23.786Z,8.83
2019-04-14T13:47:52.829Z,9.00
2019-04-14T13:50:21.773Z,7.63
2019-04-14T13:52:50.861Z,8.53
2019-04-14T13:55:19.801Z,8.57
2019-04-14T13:57:48.802Z,9.57
2019-04-14T14:00:19.525Z,8.27
2019-04-14T14:02:49.052Z,9.07
2019-04-14T14:05:17.944Z,8.43
2019-04-14T14:07:47.300Z,8.90
2019-04-14T14:10:17.051Z,9.67
2019-04-14T14:13:08.044Z,9.27
2019-04-14T14:15:55.611Z,9.80
2019-04-14T14:18:35.088Z,9.17
2019-04-14T14:21:32.243Z,8.70
2019-04-14T14:24:14.668Z,9.00
2019-04-14T14:26:44.390Z,9.30
2019-04-14T14:29:13.601Z,9.40
2019-04-14T14:31:43.016Z,8.63
2019-04-14T14:34:12.254Z,9.40
2019-04-14T14:36:41.046Z,9.43
2019-04-14T14:39:10.604Z,10.13
2019-04-14T14:41:39.769Z,9.83
2019-04-14T14:44:36.211Z,8.43
2019-04-14T14:47:13.791Z,8.90
2019-04-14T14:49:59.508Z,9.10
2019-04-14T14:52:32.439Z,9.30
2019-04-14T14:55:01.385Z,10.07
2019-04-14T14:57:31.034Z,9.70
2019-04-14T14:59:59.838Z,8.80
2019-04-14T15:02:29.547Z,9.60
2019-04-14T15:04:58.696Z,10.40
2019-04-14T15:07:28.070Z,10.20
2019-04-14T15:09:57.493Z,9.00
2019-04-14T15:12:26.614Z,10.50
2019-04-14T15:14:56.006Z,9.70
2019-04-14T15:17:25.471Z,9.30
2019-04-14T15:19:54.705Z,8.23
2019-04-14T15:22:23.608Z,9.83
2019-04-14T15:24:52.670Z,9.83
2019-04-14T15:27:21.892Z,9.37
2019-04-14T15:29:51.447Z,9.73
2019-04-14T15:32:20.287Z,10.70
2019-04-14T15:34:49.358Z,10.17
2019-04-14T15:37:18.454Z,10.17
2019-04-14T15:39:47.729Z,9.47
2019-04-14T15:42:16.939Z,9.97
2019-04-14T15:44:46.453Z,9.90
2019-04-14T15:47:31.913Z,10.33
2019-04-14T15:50:01.331Z,10.13
2019-04-14T15:52:47.013Z,10.03
2019-04-14T15:55:22.738Z,9.53
2019-04-14T15:58:03.290Z,10.43
2019-04-14T16:00:59.915Z,10.50
2019-04-14T16:03:48.098Z,9.60
2019-04-14T16:06:36.255Z,8.70
2019-04-14T16:09:23.240Z,9.80
2019-04-14T16:12:17.512Z,9.57
2019-04-14T16:15:04.145Z,9.40
2019-04-14T16:17:55.131Z,9.57
2019-04-14T16:20:27.418Z,9.27
2019-04-14T16:22:56.765Z,8.10
2019-04-14T16:25:38.034Z,8.63
2019-04-14T16:28:12.283Z,6.07
2019-04-14T16:30:59.442Z,7.77
2019-04-14T16:33:35.857Z,7.10
2019-04-14T16:36:05.253Z,7.93
2019-04-14T16:38:34.485Z,6.97
2019-04-14T16:41:03.337Z,7.23
2019-04-14T16:43:32.255Z,6.97
2019-04-14T16:46:01.260Z,6.87
2019-04-14T16:48:30.313Z,6.63
2019-04-14T16:51:00.047Z,6.43
2019-04-14T16:53:31.285Z,7.50
2019-04-14T16:56:15.019Z,7.63
2019-04-14T16:58:49.456Z,6.90
2019-04-14T17:01:23.834Z,6.53
2019-04-14T17:03:55.350Z,6.03
2019-04-14T17:06:25.173Z,6.57
2019-04-14T17:08:54.207Z,6.40
2019-04-14T17:11:23.922Z,6.03
2019-04-14T17:14:00.361Z,5.97
2019-04-14T17:16:47.587Z,5.73
2019-04-14T17:19:24.090Z,5.30
2019-04-14T17:22:02.231Z,5.80
2019-04-14T17:24:44.321Z,5.63
2019-04-14T17:27:18.229Z,5.33
2019-04-14T17:29:58.636Z,5.03
2019-04-14T17:32:38.943Z,5.57
2019-04-14T17:35:22.601Z,7.10
2019-04-14T17:38:07.118Z,6.53
2019-04-14T17:40:53.998Z,5.67
2019-04-14T17:43:30.862Z,6.80
2019-04-14T17:46:25.232Z,5.67
2019-04-14T17:49:08.172Z,5.87
2019-04-14T17:52:01.453Z,4.90
2019-04-14T17:54:46.226Z,5.53
2019-04-14T17:57:34.277Z,5.17
2019-04-14T18:00:18.474Z,6.30
2019-04-14T18:02:55.102Z,4.97
2019-04-14T18:05:32.034Z,4.50
2019-04-14T18:08:19.222Z,5.10
2019-04-14T18:10:56.826Z,4.73
2019-04-14T18:13:35.136Z,5.37
2019-04-14T18:16:21.902Z,5.37
2019-04-14T18:19:10.184Z,5.30
2019-04-14T18:21:39.418Z,5.70
2019-04-14T18:24:08.321Z,5.57
2019-04-14T18:26:39.448Z,4.77
2019-04-14T18:29:31.235Z,5.60
2019-04-14T18:32:08.167Z,5.73
2019-04-14T18:35:02.093Z,5.40
2019-04-14T18:37:50.308Z,6.20
2019-04-14T18:40:48.007Z,4.90
2019-04-14T18:43:35.994Z,5.57
2019-04-14T18:46:15.218Z,5.90
2019-04-14T18:48:51.378Z,5.40
2019-04-14T18:51:42.490Z,7.40
2019-04-14T18:54:37.116Z,6.03
2019-04-14T18:57:20.690Z,6.60
2019-04-14T19:00:10.426Z,6.07
2019-04-14T19:02:39.868Z,6.33
2019-04-14T19:05:08.774Z,6.70
2019-04-14T19:07:37.849Z,6.27
2019-04-14T19:10:07.576Z,5.77
2019-04-14T19:12:41.615Z,6.27
2019-04-14T19:15:36.912Z,6.00
2019-04-14T19:18:28.391Z,7.43
2019-04-14T19:21:00.523Z,6.00
2019-04-14T19:23:29.682Z,6.53
2019-04-14T19:25:58.518Z,6.27
2019-04-14T19:28:28.705Z,7.20
2019-04-14T19:33:40.322Z,6.30
2019-04-14T19:36:09.393Z,6.50
2019-04-14T19:38:38.798Z,6.33
2019-04-14T19:41:07.751Z,5.13
2019-04-14T19:43:36.806Z,6.03
2019-04-14T19:46:05.908Z,6.20
2019-04-14T19:48:35.338Z,5.83
2019-04-14T19:51:04.777Z,5.87
2019-04-14T19:53:33.911Z,4.77
2019-04-14T19:56:03.066Z,5.73
2019-04-14T19:58:31.850Z,6.00
2019-04-14T20:01:00.786Z,5.53
2019-04-14T20:03:29.890Z,5.40
2019-04-14T20:05:58.910Z,5.90
2019-04-14T20:08:27.782Z,5.67
2019-04-14T20:10:57.259Z,5.93
2019-04-14T20:13:28.106Z,6.00
2019-04-14T20:16:15.955Z,6.10
2019-04-14T20:19:10.216Z,5.73
2019-04-14T20:21:53.407Z,5.60
2019-04-14T20:24:28.994Z,5.13
2019-04-14T20:27:20.486Z,5.63
2019-04-14T20:29:52.191Z,5.40
2019-04-14T20:32:24.050Z,5.70
2019-04-14T20:34:53.283Z,5.47
2019-04-14T20:37:22.438Z,5.43
2019-04-14T20:39:51.527Z,5.67
2019-04-14T20:42:20.655Z,5.13
2019-04-14T20:44:49.687Z,5.70
2019-04-14T20:47:18.587Z,4.90
2019-04-14T20:49:47.650Z,5.60
2019-04-14T20:52:16.862Z,5.00
2019-04-14T20:54:45.697Z,6.03
2019-04-14T20:57:14.518Z,5.27
2019-04-14T20:59:43.519Z,5.17
2019-04-14T21:02:46.941Z,5.00
2019-04-14T21:05:44.098Z,5.20
2019-04-14T21:08:25.169Z,3.47
2019-04-14T21:10:57.669Z,5.10
2019-04-14T21:13:33.867Z,3.97
2019-04-14T21:16:12.819Z,4.40
2019-04-14T21:18:47.623Z,4.20
2019-04-14T21:21:22.575Z,4.33
2019-04-14T21:24:02.705Z,4.20
2019-04-14T21:26:50.917Z,4.00
2019-04-14T21:29:43.744Z,3.87
2019-04-14T21:32:17.180Z,3.80
2019-04-14T21:35:03.978Z,3.63
2019-04-14T21:37:53.792Z,3.57
2019-04-14T21:40:36.252Z,3.70
2019-04-14T21:43:05.557Z,4.17
2019-04-14T21:45:34.443Z,3.57
2019-04-14T21:48:04.039Z,3.70
2019-04-14T21:50:33.121Z,3.77
2019-04-14T21:53:02.264Z,4.13
2019-04-14T21:55:31.290Z,3.53
2019-04-14T21:58:21.600Z,3.60
2019-04-14T22:01:47.749Z,3.27
2019-04-14T22:04:35.473Z,3.70
2019-04-14T22:07:29.816Z,3.00
2019-04-14T22:10:08.251Z,2.93
2019-04-14T22:12:37.749Z,3.30
2019-04-14T22:15:07.192Z,3.10
2019-04-14T22:17:36.257Z,3.00
2019-04-14T22:20:05.196Z,3.37
2019-04-14T22:22:34.538Z,3.23
2019-04-14T22:25:04.008Z,3.07
2019-04-14T22:27:33.067Z,2.50
2019-04-14T22:30:02.575Z,3.00
2019-04-14T22:32:31.712Z,3.13
2019-04-14T22:35:00.860Z,3.07
2019-04-14T22:37:29.653Z,3.00
2019-04-14T22:39:58.879Z,2.27
2019-04-14T22:42:28.077Z,3.30
2019-04-14T22:44:57.663Z,2.53
2019-04-14T22:47:26.622Z,2.57
2019-04-14T22:49:55.744Z,3.20
2019-04-14T22:52:24.706Z,2.50
2019-04-14T22:54:54.032Z,2.37
2019-04-14T22:57:22.957Z,2.70
2019-04-14T22:59:51.919Z,2.80
2019-04-14T23:02:33.680Z,3.13
2019-04-14T23:05:26.764Z,2.90
2019-04-14T23:08:02.080Z,2.87
2019-04-14T23:10:56.727Z,3.07
2019-04-14T23:13:38.100Z,2.87
2019-04-14T23:16:21.252Z,3.47
2019-04-14T23:19:01.015Z,3.10
2019-04-14T23:21:47.749Z,2.90
2019-04-14T23:24:21.768Z,2.70
2019-04-14T23:26:52.731Z,2.67
2019-04-14T23:29:22.394Z,2.70
2019-04-14T23:31:51.865Z,3.43
2019-04-14T23:34:21.385Z,2.77
2019-04-14T23:36:50.844Z,3.07
2019-04-14T23:39:19.839Z,2.77
2019-04-14T23:41:48.849Z,2.80
2019-04-14T23:44:17.992Z,3.20
2019-04-14T23:46:46.943Z,3.43
2019-04-14T23:49:15.704Z,2.67
2019-04-14T23:51:44.961Z,3.30
2019-04-14T23:54:14.161Z,3.10
2019-04-14T23:56:43.521Z,2.30
2019-04-14T23:59:12.725Z,3.10
